sensor_id;sensor_type;location;lat;lon;timestamp;P1;durP1;ratioP1;P2;durP2;ratioP2
62711;SDS011;48772;55.586;37.730;2024-02-26T00:01:57;3.70;;;2.53;;
62711;SDS011;48772;55.586;37.730;2024-02-26T00:04:23;4.78;;;2.83;;
62711;SDS011;48772;55.586;37.730;2024-02-26T00:06:48;3.60;;;2.28;;
62711;SDS011;48772;55.586;37.730;2024-02-26T00:09:16;8.60;;;3.05;;
62711;SDS011;48772;55.586;37.730;2024-02-26T00:11:42;6.78;;;2.72;;
62711;SDS011;48772;55.586;37.730;2024-02-26T00:14:08;3.45;;;2.25;;
62711;SDS011;48772;55.586;37.730;2024-02-26T00:16:33;4.15;;;2.17;;
62711;SDS011;48772;55.586;37.730;2024-02-26T00:19:00;4.78;;;1.85;;
62711;SDS011;48772;55.586;37.730;2024-02-26T00:21:25;3.92;;;2.70;;
62711;SDS011;48772;55.586;37.730;2024-02-26T00:23:53;5.22;;;2.47;;
62711;SDS011;48772;55.586;37.730;2024-02-26T00:26:19;2.58;;;1.85;;
62711;SDS011;48772;55.586;37.730;2024-02-26T00:28:44;3.47;;;2.03;;
62711;SDS011;48772;55.586;37.730;2024-02-26T00:31:10;4.28;;;2.30;;
62711;SDS011;48772;55.586;37.730;2024-02-26T00:33:37;5.95;;;3.03;;
62711;SDS011;48772;55.586;37.730;2024-02-26T00:36:02;2.90;;;1.95;;
62711;SDS011;48772;55.586;37.730;2024-02-26T00:38:28;3.33;;;2.08;;
62711;SDS011;48772;55.586;37.730;2024-02-26T00:40:53;2.50;;;1.70;;
62711;SDS011;48772;55.586;37.730;2024-02-26T00:43:19;10.40;;;2.90;;
62711;SDS011;48772;55.586;37.730;2024-02-26T00:45:45;3.08;;;2.00;;
62711;SDS011;48772;55.586;37.730;2024-02-26T00:48:12;1.48;;;1.38;;
62711;SDS011;48772;55.586;37.730;2024-02-26T00:50:39;2.25;;;2.05;;
62711;SDS011;48772;55.586;37.730;2024-02-26T00:53:05;2.28;;;1.70;;
62711;SDS011;48772;55.586;37.730;2024-02-26T00:55:30;2.97;;;1.83;;
62711;SDS011;48772;55.586;37.730;2024-02-26T00:57:56;4.07;;;2.00;;
62711;SDS011;48772;55.586;37.730;2024-02-26T01:00:22;3.15;;;2.10;;
62711;SDS011;48772;55.586;37.730;2024-02-26T01:02:47;4.28;;;1.52;;
62711;SDS011;48772;55.586;37.730;2024-02-26T01:05:13;8.30;;;1.40;;
62711;SDS011;48772;55.586;37.730;2024-02-26T01:07:39;2.50;;;1.85;;
62711;SDS011;48772;55.586;37.730;2024-02-26T01:10:06;5.20;;;2.58;;
62711;SDS011;48772;55.586;37.730;2024-02-26T01:12:32;2.55;;;1.98;;
62711;SDS011;48772;55.586;37.730;2024-02-26T01:14:57;3.90;;;1.77;;
62711;SDS011;48772;55.586;37.730;2024-02-26T01:17:23;4.78;;;2.40;;
62711;SDS011;48772;55.586;37.730;2024-02-26T01:19:49;4.07;;;2.40;;
62711;SDS011;48772;55.586;37.730;2024-02-26T01:22:15;1.58;;;1.27;;
62711;SDS011;48772;55.586;37.730;2024-02-26T01:24:40;2.97;;;2.03;;
62711;SDS011;48772;55.586;37.730;2024-02-26T01:27:06;2.67;;;2.08;;
62711;SDS011;48772;55.586;37.730;2024-02-26T01:29:33;3.75;;;1.60;;
62711;SDS011;48772;55.586;37.730;2024-02-26T01:31:58;2.83;;;2.20;;
62711;SDS011;48772;55.586;37.730;2024-02-26T01:34:24;4.55;;;1.98;;
62711;SDS011;48772;55.586;37.730;2024-02-26T01:36:49;3.65;;;2.15;;
62711;SDS011;48772;55.586;37.730;2024-02-26T01:39:15;3.80;;;2.05;;
62711;SDS011;48772;55.586;37.730;2024-02-26T01:41:41;3.45;;;1.67;;
62711;SDS011;48772;55.586;37.730;2024-02-26T01:44:06;8.73;;;1.77;;
62711;SDS011;48772;55.586;37.730;2024-02-26T01:46:35;2.88;;;1.98;;
62711;SDS011;48772;55.586;37.730;2024-02-26T01:49:01;2.08;;;1.65;;
62711;SDS011;48772;55.586;37.730;2024-02-26T01:51:27;3.67;;;1.75;;
62711;SDS011;48772;55.586;37.730;2024-02-26T01:53:53;2.80;;;1.70;;
62711;SDS011;48772;55.586;37.730;2024-02-26T01:56:19;2.30;;;1.80;;
62711;SDS011;48772;55.586;37.730;2024-02-26T01:58:45;3.30;;;1.70;;
62711;SDS011;48772;55.586;37.730;2024-02-26T02:01:11;2.72;;;1.73;;
62711;SDS011;48772;55.586;37.730;2024-02-26T02:03:37;4.88;;;2.15;;
62711;SDS011;48772;55.586;37.730;2024-02-26T02:06:03;3.17;;;1.50;;
62711;SDS011;48772;55.586;37.730;2024-02-26T02:08:29;2.10;;;1.63;;
62711;SDS011;48772;55.586;37.730;2024-02-26T02:10:55;3.10;;;1.38;;
62711;SDS011;48772;55.586;37.730;2024-02-26T02:13:21;1.80;;;1.25;;
62711;SDS011;48772;55.586;37.730;2024-02-26T02:15:47;5.82;;;2.22;;
62711;SDS011;48772;55.586;37.730;2024-02-26T02:18:13;2.65;;;1.58;;
62711;SDS011;48772;55.586;37.730;2024-02-26T02:20:39;3.28;;;1.63;;
62711;SDS011;48772;55.586;37.730;2024-02-26T02:23:05;6.90;;;2.05;;
62711;SDS011;48772;55.586;37.730;2024-02-26T02:25:30;2.95;;;1.80;;
62711;SDS011;48772;55.586;37.730;2024-02-26T02:27:56;2.30;;;1.50;;
62711;SDS011;48772;55.586;37.730;2024-02-26T02:30:26;2.55;;;1.40;;
62711;SDS011;48772;55.586;37.730;2024-02-26T02:32:53;3.80;;;1.50;;
62711;SDS011;48772;55.586;37.730;2024-02-26T02:35:18;5.22;;;2.30;;
62711;SDS011;48772;55.586;37.730;2024-02-26T02:37:44;2.83;;;1.48;;
62711;SDS011;48772;55.586;37.730;2024-02-26T02:40:10;1.65;;;1.52;;
62711;SDS011;48772;55.586;37.730;2024-02-26T02:42:35;2.97;;;1.70;;
62711;SDS011;48772;55.586;37.730;2024-02-26T02:45:01;3.40;;;2.20;;
62711;SDS011;48772;55.586;37.730;2024-02-26T02:47:29;5.57;;;1.80;;
62711;SDS011;48772;55.586;37.730;2024-02-26T02:49:55;3.83;;;2.17;;
62711;SDS011;48772;55.586;37.730;2024-02-26T02:52:20;3.30;;;1.90;;
62711;SDS011;48772;55.586;37.730;2024-02-26T02:54:46;2.42;;;1.95;;
62711;SDS011;48772;55.586;37.730;2024-02-26T02:57:12;3.47;;;2.05;;
62711;SDS011;48772;55.586;37.730;2024-02-26T02:59:38;4.03;;;1.70;;
62711;SDS011;48772;55.586;37.730;2024-02-26T03:02:03;1.50;;;1.40;;
62711;SDS011;48772;55.586;37.730;2024-02-26T03:04:30;3.42;;;2.70;;
62711;SDS011;48772;55.586;37.730;2024-02-26T03:06:55;2.05;;;1.35;;
62711;SDS011;48772;55.586;37.730;2024-02-26T03:09:21;2.88;;;1.77;;
62711;SDS011;48772;55.586;37.730;2024-02-26T03:11:46;2.47;;;1.42;;
62711;SDS011;48772;55.586;37.730;2024-02-26T03:14:12;4.05;;;1.75;;
62711;SDS011;48772;55.586;37.730;2024-02-26T03:16:38;5.18;;;2.28;;
62711;SDS011;48772;55.586;37.730;2024-02-26T03:19:03;4.55;;;2.20;;
62711;SDS011;48772;55.586;37.730;2024-02-26T03:21:29;2.20;;;1.70;;
62711;SDS011;48772;55.586;37.730;2024-02-26T03:23:55;6.97;;;2.58;;
62711;SDS011;48772;55.586;37.730;2024-02-26T03:26:20;2.88;;;2.08;;
62711;SDS011;48772;55.586;37.730;2024-02-26T03:28:46;2.70;;;2.28;;
62711;SDS011;48772;55.586;37.730;2024-02-26T03:31:12;2.85;;;1.85;;
62711;SDS011;48772;55.586;37.730;2024-02-26T03:33:38;4.00;;;2.17;;
62711;SDS011;48772;55.586;37.730;2024-02-26T03:36:04;4.90;;;2.22;;
62711;SDS011;48772;55.586;37.730;2024-02-26T03:38:29;6.35;;;2.10;;
62711;SDS011;48772;55.586;37.730;2024-02-26T03:40:55;3.38;;;2.20;;
62711;SDS011;48772;55.586;37.730;2024-02-26T03:43:21;11.70;;;2.53;;
62711;SDS011;48772;55.586;37.730;2024-02-26T03:45:47;5.90;;;2.67;;
62711;SDS011;48772;55.586;37.730;2024-02-26T03:48:12;3.28;;;1.92;;
62711;SDS011;48772;55.586;37.730;2024-02-26T03:50:38;2.67;;;1.88;;
62711;SDS011;48772;55.586;37.730;2024-02-26T03:53:04;5.43;;;1.45;;
62711;SDS011;48772;55.586;37.730;2024-02-26T03:55:30;2.70;;;1.95;;
62711;SDS011;48772;55.586;37.730;2024-02-26T03:57:55;4.28;;;2.50;;
62711;SDS011;48772;55.586;37.730;2024-02-26T04:00:21;3.97;;;2.20;;
62711;SDS011;48772;55.586;37.730;2024-02-26T04:02:47;5.18;;;1.90;;
62711;SDS011;48772;55.586;37.730;2024-02-26T04:05:13;3.40;;;2.63;;
62711;SDS011;48772;55.586;37.730;2024-02-26T04:07:39;2.10;;;1.48;;
62711;SDS011;48772;55.586;37.730;2024-02-26T04:10:08;6.10;;;1.80;;
62711;SDS011;48772;55.586;37.730;2024-02-26T04:12:34;5.15;;;2.00;;
62711;SDS011;48772;55.586;37.730;2024-02-26T04:15:00;3.17;;;1.85;;
62711;SDS011;48772;55.586;37.730;2024-02-26T04:17:25;4.75;;;2.40;;
62711;SDS011;48772;55.586;37.730;2024-02-26T04:19:51;4.30;;;2.63;;
62711;SDS011;48772;55.586;37.730;2024-02-26T04:22:17;5.15;;;2.47;;
62711;SDS011;48772;55.586;37.730;2024-02-26T04:24:42;3.53;;;2.20;;
62711;SDS011;48772;55.586;37.730;2024-02-26T04:27:08;8.20;;;2.67;;
62711;SDS011;48772;55.586;37.730;2024-02-26T04:29:34;3.63;;;2.08;;
62711;SDS011;48772;55.586;37.730;2024-02-26T04:31:59;8.45;;;2.45;;
62711;SDS011;48772;55.586;37.730;2024-02-26T04:34:25;4.45;;;2.30;;
62711;SDS011;48772;55.586;37.730;2024-02-26T04:36:50;5.88;;;2.28;;
62711;SDS011;48772;55.586;37.730;2024-02-26T04:39:16;12.10;;;3.22;;
62711;SDS011;48772;55.586;37.730;2024-02-26T04:41:42;7.70;;;2.17;;
62711;SDS011;48772;55.586;37.730;2024-02-26T04:44:07;3.78;;;2.35;;
62711;SDS011;48772;55.586;37.730;2024-02-26T04:46:33;5.05;;;2.35;;
62711;SDS011;48772;55.586;37.730;2024-02-26T04:48:58;2.38;;;1.73;;
62711;SDS011;48772;55.586;37.730;2024-02-26T04:51:24;3.83;;;2.17;;
62711;SDS011;48772;55.586;37.730;2024-02-26T04:53:50;2.42;;;2.05;;
62711;SDS011;48772;55.586;37.730;2024-02-26T04:56:15;4.97;;;2.60;;
62711;SDS011;48772;55.586;37.730;2024-02-26T04:58:41;3.25;;;2.20;;
62711;SDS011;48772;55.586;37.730;2024-02-26T05:01:06;3.78;;;1.92;;
62711;SDS011;48772;55.586;37.730;2024-02-26T05:03:32;5.93;;;2.67;;
62711;SDS011;48772;55.586;37.730;2024-02-26T05:05:58;5.30;;;2.47;;
62711;SDS011;48772;55.586;37.730;2024-02-26T05:08:23;2.63;;;1.95;;
62711;SDS011;48772;55.586;37.730;2024-02-26T05:10:49;9.07;;;3.17;;
62711;SDS011;48772;55.586;37.730;2024-02-26T05:13:15;7.45;;;2.67;;
62711;SDS011;48772;55.586;37.730;2024-02-26T05:15:43;4.75;;;2.17;;
62711;SDS011;48772;55.586;37.730;2024-02-26T05:18:10;3.55;;;2.33;;
62711;SDS011;48772;55.586;37.730;2024-02-26T05:20:36;6.00;;;3.15;;
62711;SDS011;48772;55.586;37.730;2024-02-26T05:23:03;3.40;;;2.30;;
62711;SDS011;48772;55.586;37.730;2024-02-26T05:25:29;5.00;;;2.60;;
62711;SDS011;48772;55.586;37.730;2024-02-26T05:27:55;5.03;;;2.45;;
62711;SDS011;48772;55.586;37.730;2024-02-26T05:30:20;4.15;;;2.92;;
62711;SDS011;48772;55.586;37.730;2024-02-26T05:32:46;4.03;;;2.40;;
62711;SDS011;48772;55.586;37.730;2024-02-26T05:35:11;4.40;;;2.45;;
62711;SDS011;48772;55.586;37.730;2024-02-26T05:37:37;10.68;;;3.92;;
62711;SDS011;48772;55.586;37.730;2024-02-26T05:40:03;4.00;;;2.17;;
62711;SDS011;48772;55.586;37.730;2024-02-26T05:42:30;3.75;;;2.83;;
62711;SDS011;48772;55.586;37.730;2024-02-26T05:44:55;3.40;;;2.58;;
62711;SDS011;48772;55.586;37.730;2024-02-26T05:47:21;4.13;;;2.63;;
62711;SDS011;48772;55.586;37.730;2024-02-26T05:49:46;9.00;;;2.65;;
62711;SDS011;48772;55.586;37.730;2024-02-26T05:52:12;4.32;;;2.33;;
62711;SDS011;48772;55.586;37.730;2024-02-26T05:54:37;6.28;;;2.85;;
62711;SDS011;48772;55.586;37.730;2024-02-26T05:57:03;4.03;;;2.88;;
62711;SDS011;48772;55.586;37.730;2024-02-26T05:59:29;3.88;;;1.60;;
62711;SDS011;48772;55.586;37.730;2024-02-26T06:01:55;5.72;;;3.45;;
62711;SDS011;48772;55.586;37.730;2024-02-26T06:04:20;4.88;;;2.97;;
62711;SDS011;48772;55.586;37.730;2024-02-26T06:06:46;4.05;;;2.38;;
62711;SDS011;48772;55.586;37.730;2024-02-26T06:09:12;6.07;;;2.05;;
62711;SDS011;48772;55.586;37.730;2024-02-26T06:11:38;4.43;;;2.67;;
62711;SDS011;48772;55.586;37.730;2024-02-26T06:14:04;9.85;;;3.28;;
62711;SDS011;48772;55.586;37.730;2024-02-26T06:16:30;8.77;;;2.97;;
62711;SDS011;48772;55.586;37.730;2024-02-26T06:18:56;6.55;;;2.80;;
62711;SDS011;48772;55.586;37.730;2024-02-26T06:21:22;5.05;;;2.58;;
62711;SDS011;48772;55.586;37.730;2024-02-26T06:23:48;3.25;;;2.45;;
62711;SDS011;48772;55.586;37.730;2024-02-26T06:26:16;5.72;;;3.13;;
62711;SDS011;48772;55.586;37.730;2024-02-26T06:28:42;3.92;;;2.35;;
62711;SDS011;48772;55.586;37.730;2024-02-26T06:31:07;4.95;;;2.28;;
62711;SDS011;48772;55.586;37.730;2024-02-26T06:33:33;3.90;;;3.10;;
62711;SDS011;48772;55.586;37.730;2024-02-26T06:35:59;4.68;;;3.08;;
62711;SDS011;48772;55.586;37.730;2024-02-26T06:38:25;5.05;;;3.28;;
62711;SDS011;48772;55.586;37.730;2024-02-26T06:40:51;6.05;;;2.30;;
62711;SDS011;48772;55.586;37.730;2024-02-26T06:43:17;4.53;;;2.60;;
62711;SDS011;48772;55.586;37.730;2024-02-26T06:45:43;5.82;;;3.33;;
62711;SDS011;48772;55.586;37.730;2024-02-26T06:48:08;2.95;;;2.25;;
62711;SDS011;48772;55.586;37.730;2024-02-26T06:50:34;6.97;;;3.50;;
62711;SDS011;48772;55.586;37.730;2024-02-26T06:53:00;3.83;;;2.65;;
62711;SDS011;48772;55.586;37.730;2024-02-26T06:55:26;5.45;;;2.83;;
62711;SDS011;48772;55.586;37.730;2024-02-26T06:57:52;5.20;;;2.67;;
62711;SDS011;48772;55.586;37.730;2024-02-26T07:00:18;5.35;;;3.25;;
62711;SDS011;48772;55.586;37.730;2024-02-26T07:02:44;4.93;;;2.38;;
62711;SDS011;48772;55.586;37.730;2024-02-26T07:08:00;6.35;;;3.00;;
62711;SDS011;48772;55.586;37.730;2024-02-26T07:10:26;4.90;;;2.55;;
62711;SDS011;48772;55.586;37.730;2024-02-26T07:12:52;8.15;;;3.88;;
62711;SDS011;48772;55.586;37.730;2024-02-26T07:15:18;5.45;;;3.13;;
62711;SDS011;48772;55.586;37.730;2024-02-26T07:17:44;6.72;;;3.22;;
62711;SDS011;48772;55.586;37.730;2024-02-26T07:20:13;4.70;;;2.55;;
62711;SDS011;48772;55.586;37.730;2024-02-26T07:22:39;6.65;;;2.70;;
62711;SDS011;48772;55.586;37.730;2024-02-26T07:25:07;4.40;;;2.92;;
62711;SDS011;48772;55.586;37.730;2024-02-26T07:27:39;3.22;;;2.60;;
62711;SDS011;48772;55.586;37.730;2024-02-26T07:30:05;3.00;;;2.08;;
62711;SDS011;48772;55.586;37.730;2024-02-26T07:32:31;3.78;;;2.97;;
62711;SDS011;48772;55.586;37.730;2024-02-26T07:34:57;3.25;;;2.30;;
62711;SDS011;48772;55.586;37.730;2024-02-26T07:37:22;8.50;;;2.58;;
62711;SDS011;48772;55.586;37.730;2024-02-26T07:39:48;4.53;;;3.35;;
62711;SDS011;48772;55.586;37.730;2024-02-26T07:42:14;4.22;;;2.67;;
62711;SDS011;48772;55.586;37.730;2024-02-26T07:44:39;5.68;;;3.15;;
62711;SDS011;48772;55.586;37.730;2024-02-26T07:47:11;5.75;;;3.15;;
62711;SDS011;48772;55.586;37.730;2024-02-26T07:49:37;6.38;;;2.80;;
62711;SDS011;48772;55.586;37.730;2024-02-26T07:52:03;5.93;;;3.42;;
62711;SDS011;48772;55.586;37.730;2024-02-26T07:54:29;7.05;;;2.53;;
62711;SDS011;48772;55.586;37.730;2024-02-26T07:56:55;7.32;;;3.45;;
62711;SDS011;48772;55.586;37.730;2024-02-26T07:59:20;4.97;;;2.22;;
62711;SDS011;48772;55.586;37.730;2024-02-26T08:01:52;9.45;;;3.28;;
62711;SDS011;48772;55.586;37.730;2024-02-26T08:04:18;4.22;;;2.38;;
62711;SDS011;48772;55.586;37.730;2024-02-26T08:06:44;7.45;;;2.78;;
62711;SDS011;48772;55.586;37.730;2024-02-26T08:09:10;5.65;;;3.40;;
62711;SDS011;48772;55.586;37.730;2024-02-26T08:11:38;4.22;;;2.63;;
62711;SDS011;48772;55.586;37.730;2024-02-26T08:14:04;8.10;;;3.03;;
62711;SDS011;48772;55.586;37.730;2024-02-26T08:16:30;7.63;;;2.78;;
62711;SDS011;48772;55.586;37.730;2024-02-26T08:18:56;4.40;;;3.17;;
62711;SDS011;48772;55.586;37.730;2024-02-26T08:21:22;5.72;;;2.72;;
62711;SDS011;48772;55.586;37.730;2024-02-26T08:23:48;10.82;;;2.67;;
62711;SDS011;48772;55.586;37.730;2024-02-26T08:26:13;9.00;;;3.45;;
62711;SDS011;48772;55.586;37.730;2024-02-26T08:28:39;6.40;;;2.80;;
62711;SDS011;48772;55.586;37.730;2024-02-26T08:31:06;7.18;;;3.40;;
62711;SDS011;48772;55.586;37.730;2024-02-26T08:33:32;6.85;;;3.88;;
62711;SDS011;48772;55.586;37.730;2024-02-26T08:36:04;4.90;;;2.30;;
62711;SDS011;48772;55.586;37.730;2024-02-26T08:38:30;4.60;;;2.92;;
62711;SDS011;48772;55.586;37.730;2024-02-26T08:40:56;4.68;;;2.83;;
62711;SDS011;48772;55.586;37.730;2024-02-26T08:43:22;5.90;;;2.92;;
62711;SDS011;48772;55.586;37.730;2024-02-26T08:45:47;8.07;;;3.05;;
62711;SDS011;48772;55.586;37.730;2024-02-26T08:48:13;6.15;;;2.58;;
62711;SDS011;48772;55.586;37.730;2024-02-26T08:50:39;6.35;;;2.80;;
62711;SDS011;48772;55.586;37.730;2024-02-26T08:53:05;4.75;;;2.20;;
62711;SDS011;48772;55.586;37.730;2024-02-26T08:55:32;5.10;;;3.17;;
62711;SDS011;48772;55.586;37.730;2024-02-26T08:57:58;5.25;;;3.22;;
62711;SDS011;48772;55.586;37.730;2024-02-26T09:00:24;9.23;;;3.80;;
62711;SDS011;48772;55.586;37.730;2024-02-26T09:02:50;7.90;;;2.92;;
62711;SDS011;48772;55.586;37.730;2024-02-26T09:05:16;3.47;;;2.70;;
62711;SDS011;48772;55.586;37.730;2024-02-26T09:07:41;5.85;;;3.03;;
62711;SDS011;48772;55.586;37.730;2024-02-26T09:10:07;5.95;;;3.13;;
62711;SDS011;48772;55.586;37.730;2024-02-26T09:12:39;7.65;;;3.35;;
62711;SDS011;48772;55.586;37.730;2024-02-26T09:15:05;8.25;;;3.30;;
62711;SDS011;48772;55.586;37.730;2024-02-26T09:17:31;4.97;;;2.70;;
62711;SDS011;48772;55.586;37.730;2024-02-26T09:19:57;8.63;;;3.15;;
62711;SDS011;48772;55.586;37.730;2024-02-26T09:22:22;8.45;;;2.42;;
62711;SDS011;48772;55.586;37.730;2024-02-26T09:24:48;10.65;;;3.28;;
62711;SDS011;48772;55.586;37.730;2024-02-26T09:27:15;9.50;;;3.42;;
62711;SDS011;48772;55.586;37.730;2024-02-26T09:29:42;9.85;;;3.30;;
62711;SDS011;48772;55.586;37.730;2024-02-26T09:32:07;7.47;;;3.78;;
62711;SDS011;48772;55.586;37.730;2024-02-26T09:34:33;6.03;;;3.13;;
62711;SDS011;48772;55.586;37.730;2024-02-26T09:36:59;5.97;;;2.85;;
62711;SDS011;48772;55.586;37.730;2024-02-26T09:39:25;9.68;;;3.53;;
62711;SDS011;48772;55.586;37.730;2024-02-26T09:41:51;6.72;;;3.80;;
62711;SDS011;48772;55.586;37.730;2024-02-26T09:44:20;8.18;;;4.15;;
62711;SDS011;48772;55.586;37.730;2024-02-26T09:46:49;6.78;;;3.50;;
62711;SDS011;48772;55.586;37.730;2024-02-26T09:49:21;7.20;;;3.35;;
62711;SDS011;48772;55.586;37.730;2024-02-26T09:51:48;7.75;;;3.97;;
62711;SDS011;48772;55.586;37.730;2024-02-26T09:54:14;10.80;;;4.15;;
62711;SDS011;48772;55.586;37.730;2024-02-26T09:56:41;9.23;;;2.85;;
62711;SDS011;48772;55.586;37.730;2024-02-26T09:59:09;7.13;;;3.38;;
62711;SDS011;48772;55.586;37.730;2024-02-26T10:01:36;10.23;;;4.18;;
62711;SDS011;48772;55.586;37.730;2024-02-26T10:04:04;3.88;;;2.80;;
62711;SDS011;48772;55.586;37.730;2024-02-26T10:06:30;5.18;;;2.72;;
62711;SDS011;48772;55.586;37.730;2024-02-26T10:08:56;8.82;;;3.30;;
62711;SDS011;48772;55.586;37.730;2024-02-26T10:11:24;6.35;;;3.53;;
62711;SDS011;48772;55.586;37.730;2024-02-26T10:13:50;6.63;;;3.55;;
62711;SDS011;48772;55.586;37.730;2024-02-26T10:16:18;7.38;;;3.78;;
62711;SDS011;48772;55.586;37.730;2024-02-26T10:18:53;11.85;;;3.60;;
62711;SDS011;48772;55.586;37.730;2024-02-26T10:21:20;8.85;;;4.07;;
62711;SDS011;48772;55.586;37.730;2024-02-26T10:23:47;10.35;;;5.18;;
62711;SDS011;48772;55.586;37.730;2024-02-26T10:26:19;7.47;;;4.38;;
62711;SDS011;48772;55.586;37.730;2024-02-26T10:28:45;15.95;;;3.45;;
62711;SDS011;48772;55.586;37.730;2024-02-26T10:31:11;8.23;;;3.35;;
62711;SDS011;48772;55.586;37.730;2024-02-26T10:33:39;9.73;;;3.47;;
62711;SDS011;48772;55.586;37.730;2024-02-26T10:36:05;9.00;;;3.42;;
62711;SDS011;48772;55.586;37.730;2024-02-26T10:38:32;7.18;;;3.30;;
62711;SDS011;48772;55.586;37.730;2024-02-26T10:40:58;12.38;;;4.40;;
62711;SDS011;48772;55.586;37.730;2024-02-26T10:43:25;15.52;;;4.88;;
62711;SDS011;48772;55.586;37.730;2024-02-26T10:45:50;7.80;;;4.20;;
62711;SDS011;48772;55.586;37.730;2024-02-26T10:48:16;6.32;;;4.00;;
62711;SDS011;48772;55.586;37.730;2024-02-26T10:50:42;13.15;;;3.70;;
62711;SDS011;48772;55.586;37.730;2024-02-26T10:53:19;14.05;;;4.95;;
62711;SDS011;48772;55.586;37.730;2024-02-26T10:55:48;11.40;;;3.53;;
62711;SDS011;48772;55.586;37.730;2024-02-26T10:58:14;6.88;;;3.40;;
62711;SDS011;48772;55.586;37.730;2024-02-26T11:00:40;10.57;;;4.03;;
62711;SDS011;48772;55.586;37.730;2024-02-26T11:03:06;4.65;;;3.28;;
62711;SDS011;48772;55.586;37.730;2024-02-26T11:05:33;6.32;;;4.13;;
62711;SDS011;48772;55.586;37.730;2024-02-26T11:07:59;9.73;;;3.83;;
62711;SDS011;48772;55.586;37.730;2024-02-26T11:10:25;10.07;;;3.78;;
62711;SDS011;48772;55.586;37.730;2024-02-26T11:12:52;11.27;;;4.47;;
62711;SDS011;48772;55.586;37.730;2024-02-26T11:15:18;9.23;;;3.50;;
62711;SDS011;48772;55.586;37.730;2024-02-26T11:17:44;9.38;;;4.40;;
62711;SDS011;48772;55.586;37.730;2024-02-26T11:20:11;9.98;;;3.88;;
62711;SDS011;48772;55.586;37.730;2024-02-26T11:22:38;10.35;;;3.78;;
62711;SDS011;48772;55.586;37.730;2024-02-26T11:25:04;6.38;;;3.83;;
62711;SDS011;48772;55.586;37.730;2024-02-26T11:27:33;14.73;;;3.70;;
62711;SDS011;48772;55.586;37.730;2024-02-26T11:30:01;7.05;;;3.55;;
62711;SDS011;48772;55.586;37.730;2024-02-26T11:32:27;15.00;;;3.97;;
62711;SDS011;48772;55.586;37.730;2024-02-26T11:34:55;6.68;;;3.40;;
62711;SDS011;48772;55.586;37.730;2024-02-26T11:37:21;9.60;;;3.95;;
62711;SDS011;48772;55.586;37.730;2024-02-26T11:39:48;7.72;;;3.80;;
62711;SDS011;48772;55.586;37.730;2024-02-26T11:42:14;7.32;;;3.53;;
62711;SDS011;48772;55.586;37.730;2024-02-26T11:44:40;7.90;;;3.85;;
62711;SDS011;48772;55.586;37.730;2024-02-26T11:47:09;12.48;;;4.82;;
62711;SDS011;48772;55.586;37.730;2024-02-26T11:49:35;8.20;;;3.67;;
62711;SDS011;48772;55.586;37.730;2024-02-26T11:52:02;15.15;;;4.30;;
62711;SDS011;48772;55.586;37.730;2024-02-26T11:57:19;9.52;;;3.38;;
62711;SDS011;48772;55.586;37.730;2024-02-26T11:59:44;7.00;;;4.07;;
62711;SDS011;48772;55.586;37.730;2024-02-26T12:02:11;9.52;;;4.05;;
62711;SDS011;48772;55.586;37.730;2024-02-26T12:04:38;8.18;;;3.25;;
62711;SDS011;48772;55.586;37.730;2024-02-26T12:07:04;5.60;;;3.50;;
62711;SDS011;48772;55.586;37.730;2024-02-26T12:09:35;5.03;;;3.75;;
62711;SDS011;48772;55.586;37.730;2024-02-26T12:12:02;9.38;;;3.75;;
62711;SDS011;48772;55.586;37.730;2024-02-26T12:14:28;8.57;;;3.85;;
62711;SDS011;48772;55.586;37.730;2024-02-26T12:16:55;8.38;;;4.25;;
62711;SDS011;48772;55.586;37.730;2024-02-26T12:19:21;10.00;;;3.83;;
62711;SDS011;48772;55.586;37.730;2024-02-26T12:21:48;8.50;;;3.22;;
62711;SDS011;48772;55.586;37.730;2024-02-26T12:24:16;8.85;;;3.60;;
62711;SDS011;48772;55.586;37.730;2024-02-26T12:26:43;8.32;;;3.17;;
62711;SDS011;48772;55.586;37.730;2024-02-26T12:29:09;7.63;;;3.80;;
62711;SDS011;48772;55.586;37.730;2024-02-26T12:31:36;7.78;;;3.47;;
62711;SDS011;48772;55.586;37.730;2024-02-26T12:34:03;4.97;;;3.10;;
62711;SDS011;48772;55.586;37.730;2024-02-26T12:36:29;5.82;;;2.58;;
62711;SDS011;48772;55.586;37.730;2024-02-26T12:38:54;9.60;;;3.42;;
62711;SDS011;48772;55.586;37.730;2024-02-26T12:41:21;6.88;;;2.38;;
62711;SDS011;48772;55.586;37.730;2024-02-26T12:43:47;4.35;;;2.83;;
62711;SDS011;48772;55.586;37.730;2024-02-26T12:46:13;5.50;;;2.65;;
62711;SDS011;48772;55.586;37.730;2024-02-26T12:48:43;8.43;;;3.50;;
62711;SDS011;48772;55.586;37.730;2024-02-26T12:51:11;7.50;;;3.35;;
62711;SDS011;48772;55.586;37.730;2024-02-26T12:53:38;4.28;;;2.95;;
62711;SDS011;48772;55.586;37.730;2024-02-26T12:56:03;11.35;;;3.33;;
62711;SDS011;48772;55.586;37.730;2024-02-26T12:58:29;7.78;;;2.97;;
62711;SDS011;48772;55.586;37.730;2024-02-26T13:00:56;14.57;;;3.40;;
62711;SDS011;48772;55.586;37.730;2024-02-26T13:03:22;3.90;;;2.75;;
62711;SDS011;48772;55.586;37.730;2024-02-26T13:05:48;4.68;;;2.80;;
62711;SDS011;48772;55.586;37.730;2024-02-26T13:08:17;3.80;;;2.38;;
62711;SDS011;48772;55.586;37.730;2024-02-26T13:10:43;5.47;;;2.78;;
62711;SDS011;48772;55.586;37.730;2024-02-26T13:13:08;5.18;;;2.72;;
62711;SDS011;48772;55.586;37.730;2024-02-26T13:15:34;5.25;;;2.72;;
62711;SDS011;48772;55.586;37.730;2024-02-26T13:18:00;8.23;;;3.75;;
62711;SDS011;48772;55.586;37.730;2024-02-26T13:20:34;7.15;;;3.28;;
62711;SDS011;48772;55.586;37.730;2024-02-26T13:23:04;6.70;;;2.83;;
62711;SDS011;48772;55.586;37.730;2024-02-26T13:25:33;7.95;;;3.08;;
62711;SDS011;48772;55.586;37.730;2024-02-26T13:28:14;8.43;;;2.80;;
62711;SDS011;48772;55.586;37.730;2024-02-26T13:30:41;9.77;;;2.92;;
62711;SDS011;48772;55.586;37.730;2024-02-26T13:33:08;6.68;;;3.78;;
62711;SDS011;48772;55.586;37.730;2024-02-26T13:35:34;8.20;;;3.22;;
62711;SDS011;48772;55.586;37.730;2024-02-26T13:38:02;7.60;;;3.35;;
62711;SDS011;48772;55.586;37.730;2024-02-26T13:40:27;5.68;;;2.72;;
62711;SDS011;48772;55.586;37.730;2024-02-26T13:42:54;4.90;;;2.60;;
62711;SDS011;48772;55.586;37.730;2024-02-26T13:45:20;7.10;;;3.13;;
62711;SDS011;48772;55.586;37.730;2024-02-26T13:47:45;8.35;;;3.53;;
62711;SDS011;48772;55.586;37.730;2024-02-26T13:50:11;8.65;;;3.25;;
62711;SDS011;48772;55.586;37.730;2024-02-26T13:52:37;10.02;;;4.07;;
62711;SDS011;48772;55.586;37.730;2024-02-26T13:55:03;5.55;;;3.05;;
62711;SDS011;48772;55.586;37.730;2024-02-26T13:57:30;7.68;;;3.63;;
62711;SDS011;48772;55.586;37.730;2024-02-26T13:59:55;8.07;;;3.63;;
62711;SDS011;48772;55.586;37.730;2024-02-26T14:02:21;8.40;;;3.38;;
62711;SDS011;48772;55.586;37.730;2024-02-26T14:04:47;8.23;;;3.28;;
62711;SDS011;48772;55.586;37.730;2024-02-26T14:07:12;6.35;;;3.60;;
62711;SDS011;48772;55.586;37.730;2024-02-26T14:09:38;14.13;;;3.47;;
62711;SDS011;48772;55.586;37.730;2024-02-26T14:12:04;7.22;;;2.58;;
62711;SDS011;48772;55.586;37.730;2024-02-26T14:14:30;6.68;;;3.30;;
62711;SDS011;48772;55.586;37.730;2024-02-26T14:16:58;6.47;;;3.30;;
62711;SDS011;48772;55.586;37.730;2024-02-26T14:19:24;7.07;;;2.88;;
62711;SDS011;48772;55.586;37.730;2024-02-26T14:21:49;7.25;;;3.67;;
62711;SDS011;48772;55.586;37.730;2024-02-26T14:24:15;5.53;;;3.22;;
62711;SDS011;48772;55.586;37.730;2024-02-26T14:26:42;6.70;;;3.20;;
62711;SDS011;48772;55.586;37.730;2024-02-26T14:29:07;3.72;;;2.33;;
62711;SDS011;48772;55.586;37.730;2024-02-26T14:31:33;4.15;;;2.78;;
62711;SDS011;48772;55.586;37.730;2024-02-26T14:33:59;7.43;;;2.53;;